Time;durP1;ratioP1;P1;durP2;ratioP2;P2;SDS_P1;SDS_P2;PMS_P1;PMS_P2;Temp;Humidity;BMP_temperature;BMP_pressure;BME280_temperature;BME280_humidity;BME280_pressure;Samples;Min_cycle;Max_cycle;Signal;HPM_P1;HPM_P2
2022/06/20 00:00:47;;;;;;;16.92;4.90;;;;;;;;;;5052022;28;20047;-92
2022/06/20 00:03:25;;;;;;;11.68;4.95;;;;;;;;;;5059410;28;20024;-92
2022/06/20 00:05:51;;;;;;;14.25;5.28;;;;;;;;;;5042196;28;20017;-91
2022/06/20 00:08:17;;;;;;;16.13;5.50;;;;;;;;;;5059220;28;20033;-93
2022/06/20 00:10:44;;;;;;;18.50;5.00;;;;;;;;;;5042060;28;20136;-91
2022/06/20 00:13:15;;;;;;;11.10;4.88;;;;;;;;;;5042069;28;20021;-89
2022/06/20 00:15:41;;;;;;;15.88;6.05;;;;;;;;;;5012958;28;20029;-88
2022/06/20 00:18:07;;;;;;;11.48;5.22;;;;;;;;;;4998205;28;20069;-89
2022/06/20 00:20:34;;;;;;;10.85;5.18;;;;;;;;;;4997330;28;20030;-89
2022/06/20 00:23:00;;;;;;;14.07;5.43;;;;;;;;;;5018801;28;20056;-88
2022/06/20 00:25:26;;;;;;;13.88;5.47;;;;;;;;;;5034452;28;20036;-87
2022/06/20 00:27:53;;;;;;;11.27;5.20;;;;;;;;;;5019381;28;20025;-93
2022/06/20 00:30:19;;;;;;;18.00;6.07;;;;;;;;;;5024328;28;20058;-92
2022/06/20 00:32:46;;;;;;;14.68;5.90;;;;;;;;;;5022956;28;20030;-93
2022/06/20 00:35:12;;;;;;;15.85;6.05;;;;;;;;;;5019549;28;20034;-93
2022/06/20 00:37:38;;;;;;;13.73;4.97;;;;;;;;;;5034021;28;20030;-92
2022/06/20 00:40:17;;;;;;;11.32;5.57;;;;;;;;;;5002351;28;20056;-92
2022/06/20 00:42:43;;;;;;;18.52;5.32;;;;;;;;;;5019917;28;20449;-92
2022/06/20 00:45:11;;;;;;;14.73;6.20;;;;;;;;;;5018789;28;20026;-92
2022/06/20 00:47:38;;;;;;;14.88;5.63;;;;;;;;;;5000035;28;20114;-92
2022/06/20 00:50:07;;;;;;;13.48;5.15;;;;;;;;;;5005141;28;20053;-91
2022/06/20 00:52:45;;;;;;;13.85;4.95;;;;;;;;;;5036736;28;20022;-92
2022/06/20 00:55:14;;;;;;;13.13;4.85;;;;;;;;;;5037490;28;20129;-92
2022/06/20 00:57:43;;;;;;;16.23;6.07;;;;;;;;;;5017886;28;20052;-92
2022/06/20 01:00:11;;;;;;;13.52;5.13;;;;;;;;;;5016291;28;20034;-92
2022/06/20 01:02:46;;;;;;;14.02;5.72;;;;;;;;;;5019945;28;20021;-91
2022/06/20 01:05:25;;;;;;;14.60;5.35;;;;;;;;;;5055329;28;20035;-93
2022/06/20 01:08:11;;;;;;;11.48;5.90;;;;;;;;;;5041165;28;20010;-94
2022/06/20 01:10:45;;;;;;;13.88;5.90;;;;;;;;;;4974570;28;20043;-90
2022/06/20 01:13:15;;;;;;;18.42;5.63;;;;;;;;;;5009801;28;20049;-88
2022/06/20 01:15:42;;;;;;;14.25;5.97;;;;;;;;;;4984136;28;20498;-90
2022/06/20 01:18:20;;;;;;;13.85;5.13;;;;;;;;;;4977442;28;20499;-90
2022/06/20 01:20:47;;;;;;;15.23;6.10;;;;;;;;;;4994342;28;20109;-89
2022/06/20 01:23:39;;;;;;;11.07;5.45;;;;;;;;;;5014638;28;20109;-89
2022/06/20 01:26:08;;;;;;;14.70;5.82;;;;;;;;;;5023680;28;20037;-90
2022/06/20 01:28:35;;;;;;;11.88;5.32;;;;;;;;;;5017476;28;20032;-88
2022/06/20 01:31:01;;;;;;;14.13;5.97;;;;;;;;;;5013168;28;20029;-89
2022/06/20 01:33:27;;;;;;;12.95;6.00;;;;;;;;;;5014976;28;20022;-90
2022/06/20 01:38:40;;;;;;;17.55;5.53;;;;;;;;;;5015355;28;20064;-91
2022/06/20 01:43:53;;;;;;;9.32;5.47;;;;;;;;;;5032689;28;20117;-88
2022/06/20 01:46:19;;;;;;;14.07;5.68;;;;;;;;;;5014716;28;20059;-88
2022/06/20 01:48:49;;;;;;;29.67;5.93;;;;;;;;;;5031516;28;20026;-89
2022/06/20 01:51:20;;;;;;;17.80;6.20;;;;;;;;;;5032291;28;20049;-88
2022/06/20 01:53:47;;;;;;;15.82;5.88;;;;;;;;;;5033070;28;20025;-88
2022/06/20 01:56:13;;;;;;;15.88;5.63;;;;;;;;;;5021203;28;20034;-90
2022/06/20 01:58:41;;;;;;;9.45;4.85;;;;;;;;;;4995147;28;20049;-92
2022/06/20 02:01:07;;;;;;;14.18;5.10;;;;;;;;;;4998907;28;20022;-89
2022/06/20 02:03:34;;;;;;;15.45;5.45;;;;;;;;;;4996056;28;20463;-89
2022/06/20 02:06:01;;;;;;;19.67;5.40;;;;;;;;;;5024918;28;20432;-89
2022/06/20 02:08:27;;;;;;;16.45;4.78;;;;;;;;;;5018694;28;20444;-89
2022/06/20 02:11:09;;;;;;;19.67;4.90;;;;;;;;;;4994792;28;20065;-89
2022/06/20 02:13:34;;;;;;;;;;;;;;;;;;5013536;28;20038;-89
2022/06/20 02:16:04;;;;;;;13.77;5.45;;;;;;;;;;4995291;28;19956;-90
2022/06/20 02:18:31;;;;;;;13.38;4.38;;;;;;;;;;5012620;28;20037;-90
2022/06/20 02:21:00;;;;;;;15.32;5.20;;;;;;;;;;5012521;28;20083;-89
2022/06/20 02:23:27;;;;;;;15.32;5.75;;;;;;;;;;4995312;28;20026;-90
2022/06/20 02:25:54;;;;;;;17.58;5.57;;;;;;;;;;5013158;28;20034;-90
2022/06/20 02:28:22;;;;;;;14.23;4.38;;;;;;;;;;5012841;28;20473;-88
2022/06/20 02:30:48;;;;;;;20.35;5.28;;;;;;;;;;5012863;28;20026;-89
2022/06/20 02:33:17;;;;;;;19.05;5.22;;;;;;;;;;5012833;28;20022;-89
2022/06/20 02:35:47;;;;;;;15.18;5.07;;;;;;;;;;5013035;28;20026;-90
2022/06/20 02:38:13;;;;;;;14.77;4.75;;;;;;;;;;4995498;28;20030;-90
2022/06/20 02:40:41;;;;;;;11.27;4.05;;;;;;;;;;4994965;28;20026;-89
2022/06/20 02:43:20;;;;;;;15.27;4.50;;;;;;;;;;5012541;28;20429;-89
2022/06/20 02:45:46;;;;;;;14.90;5.22;;;;;;;;;;5001035;28;20092;-88
2022/06/20 02:48:13;;;;;;;17.58;4.82;;;;;;;;;;5012287;28;20079;-89
2022/06/20 02:50:44;;;;;;;14.65;4.03;;;;;;;;;;5012534;28;20028;-88
2022/06/20 02:53:17;;;;;;;15.93;5.22;;;;;;;;;;4998610;28;20022;-89
2022/06/20 02:55:43;;;;;;;17.98;3.83;;;;;;;;;;5016414;28;20038;-90
2022/06/20 02:58:15;;;;;;;11.15;3.80;;;;;;;;;;5016935;28;20036;-87
2022/06/20 03:00:45;;;;;;;19.38;4.28;;;;;;;;;;4997950;28;20040;-89
2022/06/20 03:03:15;;;;;;;12.35;3.63;;;;;;;;;;5016069;28;20056;-90
2022/06/20 03:05:41;;;;;;;14.45;3.88;;;;;;;;;;5016076;28;20026;-87
2022/06/20 03:08:08;;;;;;;15.75;3.63;;;;;;;;;;5015977;28;20029;-88
2022/06/20 03:10:41;;;;;;;12.93;3.58;;;;;;;;;;5015769;28;20034;-88
2022/06/20 03:13:07;;;;;;;9.88;3.30;;;;;;;;;;5015582;28;20038;-87
2022/06/20 03:15:35;;;;;;;17.15;3.25;;;;;;;;;;4997850;28;20038;-89
2022/06/20 03:18:01;;;;;;;18.52;4.57;;;;;;;;;;5005786;28;20030;-88
2022/06/20 03:20:28;;;;;;;9.95;3.53;;;;;;;;;;5001396;28;20026;-89
2022/06/20 03:23:00;;;;;;;8.48;3.53;;;;;;;;;;4997799;28;20045;-88
2022/06/20 03:25:26;;;;;;;5.75;3.72;;;;;;;;;;4997813;28;20026;-90
2022/06/20 03:27:52;;;;;;;11.98;3.47;;;;;;;;;;5015344;28;20501;-86
2022/06/20 03:30:22;;;;;;;13.23;4.10;;;;;;;;;;5016951;28;20113;-87
2022/06/20 03:32:48;;;;;;;8.35;3.13;;;;;;;;;;4998479;28;20018;-88
2022/06/20 03:35:14;;;;;;;11.20;3.33;;;;;;;;;;5015440;28;20030;-88
2022/06/20 03:37:40;;;;;;;13.07;3.58;;;;;;;;;;5015193;28;20036;-89
2022/06/20 03:40:07;;;;;;;16.35;3.83;;;;;;;;;;5014906;28;20390;-89
2022/06/20 03:42:33;;;;;;;12.13;3.47;;;;;;;;;;5014983;28;20133;-86
2022/06/20 03:44:59;;;;;;;13.60;3.72;;;;;;;;;;5015330;28;20030;-88
2022/06/20 03:47:28;;;;;;;8.18;2.97;;;;;;;;;;4996973;28;20044;-89
2022/06/20 03:50:01;;;;;;;10.10;3.42;;;;;;;;;;5015217;28;20026;-89
2022/06/20 03:52:29;;;;;;;9.90;3.17;;;;;;;;;;4997086;28;20044;-87
2022/06/20 03:54:58;;;;;;;12.07;3.40;;;;;;;;;;5014630;28;20462;-86
2022/06/20 03:57:28;;;;;;;9.68;3.28;;;;;;;;;;4996725;28;20036;-87
2022/06/20 04:00:00;;;;;;;7.55;3.47;;;;;;;;;;4997165;28;20084;-91
2022/06/20 04:02:50;;;;;;;10.80;3.53;;;;;;;;;;5015093;28;20041;-87
2022/06/20 04:05:36;;;;;;;16.83;3.55;;;;;;;;;;5029867;28;20052;-91
2022/06/20 04:08:05;;;;;;;7.20;3.38;;;;;;;;;;5014595;28;20516;-90
2022/06/20 04:13:24;;;;;;;8.68;3.53;;;;;;;;;;5035688;28;20048;-91
2022/06/20 04:15:52;;;;;;;11.13;3.53;;;;;;;;;;5030224;28;20029;-89
2022/06/20 04:18:27;;;;;;;10.07;3.85;;;;;;;;;;4996647;28;20033;-91
2022/06/20 04:20:58;;;;;;;8.40;3.50;;;;;;;;;;4996223;28;20117;-91
2022/06/20 04:23:27;;;;;;;8.52;3.90;;;;;;;;;;4994962;28;20030;-91
2022/06/20 04:26:02;;;;;;;15.02;4.32;;;;;;;;;;4994856;28;20030;-91
2022/06/20 04:28:34;;;;;;;10.15;4.38;;;;;;;;;;4993236;28;20054;-91
2022/06/20 04:31:11;;;;;;;13.23;3.65;;;;;;;;;;4993098;28;20034;-91
2022/06/20 04:33:41;;;;;;;11.38;3.42;;;;;;;;;;5021845;28;20030;-94
2022/06/20 04:36:18;;;;;;;11.45;3.97;;;;;;;;;;5034092;28;20018;-93
2022/06/20 04:38:59;;;;;;;12.90;3.20;;;;;;;;;;5007893;28;20025;-93
2022/06/20 04:41:35;;;;;;;11.25;4.10;;;;;;;;;;5009298;28;20033;-93
2022/06/20 04:44:04;;;;;;;13.40;4.45;;;;;;;;;;5028049;28;20030;-94
2022/06/20 04:46:33;;;;;;;11.68;3.88;;;;;;;;;;5022043;28;20359;-94
2022/06/20 04:49:00;;;;;;;13.27;4.47;;;;;;;;;;5019299;28;20029;-94
2022/06/20 04:51:39;;;;;;;12.40;4.10;;;;;;;;;;5018630;28;20026;-94
2022/06/20 04:54:08;;;;;;;14.63;4.25;;;;;;;;;;5001751;28;20032;-93
2022/06/20 04:56:35;;;;;;;12.25;3.83;;;;;;;;;;5019364;28;20088;-93
2022/06/20 04:59:07;;;;;;;10.55;3.72;;;;;;;;;;5006518;28;20014;-94
2022/06/20 05:01:34;;;;;;;12.43;3.67;;;;;;;;;;5032349;28;20014;-94
2022/06/20 05:04:06;;;;;;;10.65;3.83;;;;;;;;;;5013758;28;20036;-94
2022/06/20 05:06:33;;;;;;;9.07;3.72;;;;;;;;;;5013054;28;20025;-93
2022/06/20 05:09:02;;;;;;;9.43;3.38;;;;;;;;;;5012127;28;20026;-93
2022/06/20 05:11:29;;;;;;;20.52;4.20;;;;;;;;;;5010991;28;20029;-93
2022/06/20 05:13:59;;;;;;;12.25;3.58;;;;;;;;;;5021813;28;20022;-93
2022/06/20 05:16:31;;;;;;;13.95;3.78;;;;;;;;;;5036484;28;20016;-94
2022/06/20 05:19:06;;;;;;;15.23;4.10;;;;;;;;;;5037793;28;20033;-93
2022/06/20 05:21:43;;;;;;;11.38;3.50;;;;;;;;;;5028458;28;20022;-92
2022/06/20 05:24:16;;;;;;;10.65;3.72;;;;;;;;;;5001166;28;20030;-92
2022/06/20 05:26:43;;;;;;;9.15;3.45;;;;;;;;;;5016486;28;20022;-92
2022/06/20 05:29:23;;;;;;;14.20;3.92;;;;;;;;;;4996795;28;20474;-92
2022/06/20 05:31:52;;;;;;;12.95;4.78;;;;;;;;;;4997344;28;20026;-92
2022/06/20 05:34:18;;;;;;;7.97;4.13;;;;;;;;;;5018376;28;20026;-93
2022/06/20 05:36:55;;;;;;;10.02;3.97;;;;;;;;;;5006264;28;20038;-94
2022/06/20 05:39:22;;;;;;;10.57;3.55;;;;;;;;;;5021276;28;20037;-92
2022/06/20 05:41:49;;;;;;;11.02;3.88;;;;;;;;;;4999744;28;20034;-94
2022/06/20 05:44:15;;;;;;;14.98;4.47;;;;;;;;;;5002483;28;20025;-93
2022/06/20 05:46:50;;;;;;;6.50;2.70;;;;;;;;;;5004688;28;20089;-94
2022/06/20 05:49:27;;;;;;;14.55;4.40;;;;;;;;;;5013103;28;20022;-92
2022/06/20 05:51:58;;;;;;;5.82;3.10;;;;;;;;;;5011108;28;20029;-91
2022/06/20 05:54:24;;;;;;;;;;;;;;;;;;5020254;28;20030;-91
2022/06/20 05:56:57;;;;;;;13.45;3.28;;;;;;;;;;5013812;28;19905;-93
2022/06/20 05:59:26;;;;;;;12.55;3.28;;;;;;;;;;4999734;28;20165;-92
2022/06/20 06:01:56;;;;;;;10.43;3.05;;;;;;;;;;4999558;28;20030;-93
2022/06/20 06:04:29;;;;;;;13.40;3.70;;;;;;;;;;5017800;28;20041;-91
2022/06/20 06:07:01;;;;;;;11.48;3.22;;;;;;;;;;5000498;28;20056;-94
2022/06/20 06:09:42;;;;;;;10.85;3.83;;;;;;;;;;5017771;28;20025;-93
2022/06/20 06:12:13;;;;;;;12.57;3.33;;;;;;;;;;4999173;28;20033;-92
2022/06/20 06:14:47;;;;;;;8.57;2.95;;;;;;;;;;5018314;28;20308;-91
2022/06/20 06:17:18;;;;;;;12.90;3.50;;;;;;;;;;4999622;28;20076;-92
2022/06/20 06:19:52;;;;;;;9.77;3.03;;;;;;;;;;5000315;28;20121;-93
2022/06/20 06:22:26;;;;;;;11.93;3.13;;;;;;;;;;5000807;28;20479;-93
2022/06/20 06:24:54;;;;;;;13.98;3.60;;;;;;;;;;5019661;28;20050;-91
2022/06/20 06:27:22;;;;;;;11.32;2.97;;;;;;;;;;5019981;28;20022;-93
2022/06/20 06:29:54;;;;;;;8.52;3.10;;;;;;;;;;5015297;28;20026;-93
2022/06/20 06:32:27;;;;;;;10.65;2.90;;;;;;;;;;5022541;28;20014;-94
2022/06/20 06:34:56;;;;;;;14.18;3.47;;;;;;;;;;5038161;28;20060;-95
2022/06/20 06:37:29;;;;;;;14.10;3.40;;;;;;;;;;5022437;28;20033;-94
2022/06/20 06:39:59;;;;;;;11.80;3.50;;;;;;;;;;5040883;28;20018;-93
2022/06/20 06:42:25;;;;;;;8.38;2.63;;;;;;;;;;5035214;28;20129;-91
2022/06/20 06:44:53;;;;;;;6.03;2.78;;;;;;;;;;5019757;28;20030;-92
2022/06/20 06:47:38;;;;;;;9.30;2.78;;;;;;;;;;5036404;28;20068;-91
2022/06/20 06:50:17;;;;;;;11.73;2.88;;;;;;;;;;5032355;28;20030;-91
2022/06/20 06:52:50;;;;;;;11.32;3.53;;;;;;;;;;5037092;28;20029;-93
2022/06/20 06:55:25;;;;;;;14.02;3.67;;;;;;;;;;5055078;28;20029;-93
2022/06/20 06:57:56;;;;;;;12.43;3.30;;;;;;;;;;5055027;28;20033;-93
2022/06/20 07:00:28;;;;;;;6.78;3.10;;;;;;;;;;5056123;28;20027;-94
2022/06/20 07:03:01;;;;;;;11.98;3.42;;;;;;;;;;5037105;28;20044;-92
2022/06/20 07:05:34;;;;;;;12.95;3.70;;;;;;;;;;5038176;28;20049;-92
2022/06/20 07:08:06;;;;;;;10.70;3.47;;;;;;;;;;5040268;28;20037;-91
2022/06/20 07:10:37;;;;;;;12.18;3.40;;;;;;;;;;5035899;28;20108;-90
2022/06/20 07:13:15;;;;;;;8.23;3.72;;;;;;;;;;5018711;28;20088;-93
2022/06/20 07:15:42;;;;;;;17.92;4.97;;;;;;;;;;5037444;28;20028;-92
2022/06/20 07:18:15;;;;;;;11.07;3.85;;;;;;;;;;5042313;28;20014;-93
2022/06/20 07:20:43;;;;;;;12.90;4.20;;;;;;;;;;5025375;28;20014;-95
2022/06/20 07:23:17;;;;;;;10.48;3.95;;;;;;;;;;5049850;28;20013;-95
2022/06/20 07:25:44;;;;;;;16.58;3.95;;;;;;;;;;5042512;28;20041;-95
2022/06/20 07:28:19;;;;;;;11.77;4.45;;;;;;;;;;5041374;28;20021;-93
2022/06/20 07:30:48;;;;;;;11.73;3.95;;;;;;;;;;5040726;28;20018;-94
2022/06/20 07:33:17;;;;;;;8.77;3.72;;;;;;;;;;5052473;28;20018;-93
2022/06/20 07:35:48;;;;;;;7.82;4.05;;;;;;;;;;5037715;28;20018;-92
2022/06/20 07:38:17;;;;;;;12.65;3.97;;;;;;;;;;5018915;28;20022;-92
2022/06/20 07:40:46;;;;;;;10.73;3.90;;;;;;;;;;5018809;28;20022;-94
2022/06/20 07:43:15;;;;;;;7.07;3.25;;;;;;;;;;5025114;28;20033;-94
2022/06/20 07:45:43;;;;;;;11.35;4.00;;;;;;;;;;5038364;28;20033;-95
2022/06/20 07:48:15;;;;;;;11.43;4.00;;;;;;;;;;5035564;28;20025;-93
2022/06/20 07:50:50;;;;;;;7.10;3.28;;;;;;;;;;5056699;28;20018;-92
2022/06/20 07:53:34;;;;;;;15.70;3.97;;;;;;;;;;5021003;28;20029;-94
2022/06/20 07:56:05;;;;;;;8.10;3.20;;;;;;;;;;5057175;28;20029;-94
2022/06/20 07:58:32;;;;;;;10.48;3.70;;;;;;;;;;5059373;28;20025;-95
2022/06/20 08:01:01;;;;;;;12.27;4.10;;;;;;;;;;5041659;28;20033;-92
2022/06/20 08:03:39;;;;;;;12.15;4.32;;;;;;;;;;5041941;28;20084;-95
2022/06/20 08:06:14;;;;;;;18.67;4.45;;;;;;;;;;5057025;28;20021;-93
2022/06/20 08:09:09;;;;;;;14.23;4.85;;;;;;;;;;5041459;28;20025;-94
2022/06/20 08:11:51;;;;;;;13.27;4.45;;;;;;;;;;5020229;28;20044;-95
2022/06/20 08:14:22;;;;;;;12.90;4.32;;;;;;;;;;5054705;28;20045;-94
2022/06/20 08:16:50;;;;;;;10.57;4.00;;;;;;;;;;5036224;28;20020;-94
2022/06/20 08:19:17;;;;;;;11.05;4.28;;;;;;;;;;5035488;28;20017;-94
2022/06/20 08:21:49;;;;;;;11.52;4.32;;;;;;;;;;5038335;28;20014;-93
2022/06/20 08:24:18;;;;;;;13.80;3.92;;;;;;;;;;5036636;28;20029;-94
2022/06/20 08:26:56;;;;;;;13.07;4.07;;;;;;;;;;5037691;28;20089;-94
2022/06/20 08:29:26;;;;;;;14.45;4.18;;;;;;;;;;5039795;28;20013;-94
2022/06/20 08:31:53;;;;;;;15.57;4.23;;;;;;;;;;5056392;28;20041;-94
2022/06/20 08:34:23;;;;;;;7.68;4.25;;;;;;;;;;5054360;28;20048;-92
2022/06/20 08:36:52;;;;;;;10.68;3.85;;;;;;;;;;5052304;28;20021;-93
2022/06/20 08:39:21;;;;;;;10.88;3.60;;;;;;;;;;5036608;28;20017;-94
2022/06/20 08:42:00;;;;;;;12.57;4.38;;;;;;;;;;5036153;28;20034;-93
2022/06/20 08:44:41;;;;;;;11.85;3.35;;;;;;;;;;5035303;28;20033;-93
2022/06/20 08:47:08;;;;;;;6.38;2.90;;;;;;;;;;5054908;28;20021;-95
2022/06/20 08:49:46;;;;;;;14.38;3.65;;;;;;;;;;5174422;22;20044;-94
2022/06/20 08:52:34;;;;;;;9.38;3.30;;;;;;;;;;5033529;28;20085;-92
2022/06/20 08:57:39;;;;;;;6.20;2.90;;;;;;;;;;5106164;22;20061;-93
2022/06/20 09:00:15;;;;;;;12.75;3.00;;;;;;;;;;5037959;28;20029;-93
2022/06/20 09:02:44;;;;;;;11.13;3.30;;;;;;;;;;5054630;28;20109;-91
2022/06/20 09:05:48;;;;;;;9.43;3.15;;;;;;;;;;5053738;28;20056;-93
2022/06/20 09:08:29;;;;;;;8.57;3.53;;;;;;;;;;4956731;29;20031;-93
2022/06/20 09:11:16;;;;;;;9.60;3.00;;;;;;;;;;4974486;28;20023;-94
2022/06/20 09:13:48;;;;;;;9.00;3.38;;;;;;;;;;5028423;28;20097;-95
2022/06/20 09:16:14;;;;;;;10.35;3.03;;;;;;;;;;5055053;28;20043;-92
2022/06/20 09:18:53;;;;;;;7.15;2.50;;;;;;;;;;5070538;28;20045;-94
2022/06/20 09:21:37;;;;;;;4.45;2.45;;;;;;;;;;5072211;28;20090;-95
2022/06/20 09:24:25;;;;;;;9.00;3.15;;;;;;;;;;5057435;28;20025;-93
2022/06/20 09:27:08;;;;;;;8.90;3.10;;;;;;;;;;5052127;28;20029;-92
2022/06/20 09:29:34;;;;;;;8.30;3.00;;;;;;;;;;5052954;28;20207;-91
2022/06/20 09:32:22;;;;;;;8.75;2.97;;;;;;;;;;5023878;28;20493;-93
2022/06/20 09:34:54;;;;;;;11.80;3.63;;;;;;;;;;5046258;28;20021;-94
2022/06/20 09:37:24;;;;;;;5.22;2.75;;;;;;;;;;5052068;28;20024;-95
2022/06/20 09:40:03;;;;;;;10.07;2.88;;;;;;;;;;5036584;28;20096;-95
2022/06/20 09:42:41;;;;;;;8.50;2.85;;;;;;;;;;5035091;28;20017;-93
2022/06/20 09:45:32;;;;;;;7.95;3.25;;;;;;;;;;5040301;28;20129;-95
2022/06/20 09:48:07;;;;;;;10.63;2.75;;;;;;;;;;5054541;28;20021;-95
2022/06/20 09:50:37;;;;;;;6.90;2.60;;;;;;;;;;5069667;23;20041;-95
2022/06/20 09:53:23;;;;;;;8.77;3.05;;;;;;;;;;5039485;28;20477;-94
2022/06/20 09:55:56;;;;;;;9.27;3.67;;;;;;;;;;5039253;28;20021;-96
2022/06/20 10:09:41;;;;;;;7.30;3.60;;;;;;;;;;5810665;23;20029;-93
2022/06/20 10:12:28;;;;;;;8.60;4.35;;;;;;;;;;5058222;22;20041;-87
2022/06/20 10:15:25;;;;;;;9.32;5.35;;;;;;;;;;5032945;28;20121;-87
2022/06/20 10:17:56;;;;;;;7.28;4.15;;;;;;;;;;5017546;28;20025;-87
2022/06/20 10:20:44;;;;;;;12.77;4.90;;;;;;;;;;5018103;28;20092;-85
2022/06/20 10:23:21;;;;;;;13.02;5.85;;;;;;;;;;5022554;28;20061;-86
2022/06/20 10:26:00;;;;;;;8.30;4.22;;;;;;;;;;4997793;28;20029;-86
2022/06/20 10:28:38;;;;;;;11.05;4.35;;;;;;;;;;4998347;28;20116;-86
2022/06/20 10:31:13;;;;;;;9.70;4.75;;;;;;;;;;4996733;28;20490;-85
2022/06/20 10:33:39;;;;;;;12.63;5.00;;;;;;;;;;5014197;28;20025;-85
2022/06/20 10:36:37;;;;;;;17.17;5.68;;;;;;;;;;5013883;28;20018;-85
2022/06/20 10:39:06;;;;;;;11.48;5.72;;;;;;;;;;5014122;28;20018;-86
2022/06/20 10:41:34;;;;;;;11.27;5.78;;;;;;;;;;5012414;28;20675;-85
2022/06/20 10:44:09;;;;;;;12.35;5.22;;;;;;;;;;4996283;28;20109;-86
2022/06/20 10:46:42;;;;;;;11.82;5.75;;;;;;;;;;4997150;28;20034;-86
2022/06/20 10:49:08;;;;;;;9.43;6.20;;;;;;;;;;5015538;28;20029;-86
2022/06/20 10:51:54;;;;;;;17.08;5.57;;;;;;;;;;5016145;28;20061;-86
2022/06/20 10:54:42;;;;;;;18.60;6.30;;;;;;;;;;5016522;28;20034;-86
2022/06/20 10:57:27;;;;;;;13.18;5.20;;;;;;;;;;5023367;28;20018;-86
2022/06/20 10:59:59;;;;;;;10.75;5.50;;;;;;;;;;5023307;28;20026;-86
2022/06/20 11:02:44;;;;;;;9.55;5.18;;;;;;;;;;5025204;28;20482;-86
2022/06/20 11:05:28;;;;;;;12.65;6.28;;;;;;;;;;5021133;28;20482;-86
2022/06/20 11:08:18;;;;;;;10.75;4.78;;;;;;;;;;5013995;28;20431;-86
2022/06/20 11:10:47;;;;;;;16.17;6.35;;;;;;;;;;5013805;28;20060;-86
2022/06/20 11:13:27;;;;;;;14.88;6.28;;;;;;;;;;5013385;28;20041;-87
2022/06/20 11:16:02;;;;;;;14.20;5.38;;;;;;;;;;5013881;28;20036;-87
2022/06/20 11:18:34;;;;;;;13.25;5.22;;;;;;;;;;5013933;28;20390;-86
2022/06/20 11:21:28;;;;;;;13.77;6.05;;;;;;;;;;5008754;28;20482;-86
2022/06/20 11:24:13;;;;;;;12.90;5.53;;;;;;;;;;4997335;28;20026;-86
2022/06/20 11:26:44;;;;;;;10.32;5.25;;;;;;;;;;5014800;28;20030;-86
2022/06/20 11:29:13;;;;;;;10.07;5.47;;;;;;;;;;4997422;28;20030;-86
2022/06/20 11:32:06;;;;;;;13.00;5.05;;;;;;;;;;4996886;28;20044;-87
2022/06/20 11:34:41;;;;;;;13.32;4.57;;;;;;;;;;4991983;28;20038;-86
2022/06/20 11:37:07;;;;;;;11.23;3.90;;;;;;;;;;5014647;28;20050;-86
2022/06/20 11:39:45;;;;;;;7.15;3.25;;;;;;;;;;5015235;28;20022;-87
2022/06/20 11:42:14;;;;;;;5.50;3.03;;;;;;;;;;5012999;28;20390;-86
2022/06/20 11:44:43;;;;;;;8.30;2.80;;;;;;;;;;4996949;28;20025;-86
2022/06/20 11:47:23;;;;;;;4.78;2.63;;;;;;;;;;5014296;28;20092;-86
2022/06/20 11:50:08;;;;;;;6.72;2.80;;;;;;;;;;4996737;28;20040;-86
2022/06/20 11:52:55;;;;;;;7.05;2.83;;;;;;;;;;4996791;28;20026;-85
2022/06/20 11:55:29;;;;;;;11.75;3.55;;;;;;;;;;4996479;28;20052;-86
2022/06/20 11:58:00;;;;;;;6.70;2.83;;;;;;;;;;4996467;28;20033;-86
2022/06/20 12:00:38;;;;;;;8.48;3.50;;;;;;;;;;4996247;28;20061;-86
2022/06/20 12:03:13;;;;;;;5.38;3.03;;;;;;;;;;5014126;28;20029;-85
2022/06/20 12:05:45;;;;;;;7.45;3.42;;;;;;;;;;5014196;28;20088;-86
2022/06/20 12:08:29;;;;;;;6.80;3.10;;;;;;;;;;5014028;28;20041;-85
2022/06/20 12:11:07;;;;;;;8.05;2.70;;;;;;;;;;4995825;28;20041;-87
2022/06/20 12:13:45;;;;;;;7.63;2.92;;;;;;;;;;5014112;28;20033;-85
2022/06/20 12:16:26;;;;;;;6.13;2.90;;;;;;;;;;5013748;28;20049;-86
2022/06/20 12:24:45;;;;;;;4.95;2.15;;;;;;;;;;5013490;28;20048;-85
2022/06/20 12:27:13;;;;;;;4.32;2.63;;;;;;;;;;4996083;28;20029;-86
2022/06/20 12:29:41;;;;;;;5.38;2.50;;;;;;;;;;5014211;28;20042;-85
2022/06/20 12:32:13;;;;;;;5.20;2.40;;;;;;;;;;4995606;28;20050;-86
2022/06/20 12:34:54;;;;;;;6.70;2.45;;;;;;;;;;4995944;28;20081;-86
2022/06/20 12:37:20;;;;;;;;;;;;;;;;;;4996105;28;20034;-85
2022/06/20 12:39:54;;;;;;;5.88;2.10;;;;;;;;;;5012682;28;20003;-85
2022/06/20 12:42:38;;;;;;;5.95;2.40;;;;;;;;;;4994149;28;20022;-86
2022/06/20 12:45:22;;;;;;;3.33;1.95;;;;;;;;;;5013313;28;20056;-86
2022/06/20 12:48:07;;;;;;;4.32;2.35;;;;;;;;;;5013977;28;20037;-87
2022/06/20 12:50:47;;;;;;;4.90;2.00;;;;;;;;;;5013476;28;20026;-86
2022/06/20 12:53:17;;;;;;;3.22;1.98;;;;;;;;;;5013487;28;20394;-86
2022/06/20 12:55:59;;;;;;;2.85;1.90;;;;;;;;;;4995822;28;20030;-85
2022/06/20 12:58:34;;;;;;;1.90;1.67;;;;;;;;;;4995530;28;20034;-86
2022/06/20 13:01:21;;;;;;;2.10;1.60;;;;;;;;;;5015730;28;20029;-86
2022/06/20 13:03:52;;;;;;;3.22;2.00;;;;;;;;;;5013255;28;20022;-86
2022/06/20 13:06:30;;;;;;;5.60;2.05;;;;;;;;;;5013172;28;20051;-86
2022/06/20 13:09:02;;;;;;;3.58;2.17;;;;;;;;;;5013163;28;20033;-86
2022/06/20 13:11:55;;;;;;;4.68;1.83;;;;;;;;;;5012949;28;20025;-86
2022/06/20 13:14:27;;;;;;;3.10;1.75;;;;;;;;;;4973297;28;20038;-85
2022/06/20 13:17:12;;;;;;;3.95;1.85;;;;;;;;;;5012775;28;20025;-86
2022/06/20 13:19:56;;;;;;;5.38;1.83;;;;;;;;;;4995740;28;20022;-86
2022/06/20 13:22:31;;;;;;;2.92;2.10;;;;;;;;;;5012136;28;20026;-86
2022/06/20 13:25:06;;;;;;;3.83;2.30;;;;;;;;;;5013163;28;20113;-86
2022/06/20 13:27:35;;;;;;;2.30;2.05;;;;;;;;;;5011546;28;20064;-85
2022/06/20 13:30:21;;;;;;;2.60;1.92;;;;;;;;;;5012329;28;20552;-85
2022/06/20 13:32:53;;;;;;;3.60;2.53;;;;;;;;;;5011287;28;20070;-85
2022/06/20 13:35:33;;;;;;;2.95;2.03;;;;;;;;;;5016051;28;20040;-86
2022/06/20 13:38:02;;;;;;;4.50;2.20;;;;;;;;;;5013904;28;20021;-86
2022/06/20 13:40:34;;;;;;;4.22;2.05;;;;;;;;;;5012162;28;20026;-84
2022/06/20 13:43:00;;;;;;;4.07;2.03;;;;;;;;;;5011251;28;20026;-86
2022/06/20 13:45:29;;;;;;;2.83;2.25;;;;;;;;;;5012902;28;20033;-86
2022/06/20 13:48:14;;;;;;;2.47;2.28;;;;;;;;;;5011181;28;20036;-86
2022/06/20 13:50:40;;;;;;;2.97;2.22;;;;;;;;;;5011081;28;20022;-86
2022/06/20 13:53:09;;;;;;;3.92;2.40;;;;;;;;;;5010982;28;20087;-86
2022/06/20 13:55:42;;;;;;;5.30;2.08;;;;;;;;;;5011121;28;20029;-85
2022/06/20 13:58:27;;;;;;;3.55;2.28;;;;;;;;;;5010964;28;20022;-86
2022/06/20 14:00:58;;;;;;;2.67;1.98;;;;;;;;;;5012316;28;20053;-86
2022/06/20 14:03:26;;;;;;;3.80;2.45;;;;;;;;;;5012309;28;20022;-86
2022/06/20 14:06:03;;;;;;;3.38;2.28;;;;;;;;;;5012595;28;20037;-86
2022/06/20 14:08:30;;;;;;;2.70;2.30;;;;;;;;;;5010920;28;20030;-86
2022/06/20 14:11:00;;;;;;;3.00;2.50;;;;;;;;;;5010659;28;20505;-86
2022/06/20 14:13:26;;;;;;;7.25;2.63;;;;;;;;;;5011110;28;20105;-86
2022/06/20 14:15:53;;;;;;;2.63;2.30;;;;;;;;;;5011065;28;20029;-86
2022/06/20 14:18:23;;;;;;;3.90;2.35;;;;;;;;;;5012003;28;20520;-86
2022/06/20 14:20:58;;;;;;;5.03;3.13;;;;;;;;;;5012314;28;20026;-85
2022/06/20 14:23:25;;;;;;;5.63;3.45;;;;;;;;;;5012380;28;20466;-85
2022/06/20 14:25:53;;;;;;;3.58;2.92;;;;;;;;;;5012208;28;20040;-86
2022/06/20 14:28:25;;;;;;;2.95;2.65;;;;;;;;;;4994965;28;20026;-85
2022/06/20 14:31:04;;;;;;;4.53;3.08;;;;;;;;;;4994388;28;20030;-85
2022/06/20 14:33:56;;;;;;;5.00;3.83;;;;;;;;;;5012619;28;20109;-85
2022/06/20 14:36:29;;;;;;;4.13;2.80;;;;;;;;;;4988360;28;20046;-85
2022/06/20 14:39:05;;;;;;;5.63;3.78;;;;;;;;;;4992589;28;20156;-87
2022/06/20 14:41:58;;;;;;;3.78;3.17;;;;;;;;;;5010936;28;20045;-87
2022/06/20 14:45:03;;;;;;;6.13;3.65;;;;;;;;;;5001654;28;20018;-87
2022/06/20 14:47:38;;;;;;;4.15;3.45;;;;;;;;;;4933239;29;20035;-86
2022/06/20 14:50:07;;;;;;;4.20;3.80;;;;;;;;;;4935433;29;20019;-86
2022/06/20 14:52:42;;;;;;;5.80;4.03;;;;;;;;;;4935493;29;20040;-86
2022/06/20 14:55:23;;;;;;;5.05;4.05;;;;;;;;;;4935646;29;20531;-85
2022/06/20 14:57:54;;;;;;;4.03;3.33;;;;;;;;;;4941287;28;20039;-85
2022/06/20 15:03:36;;;;;;;10.05;4.57;;;;;;;;;;5010026;28;20368;-86
2022/06/20 15:06:19;;;;;;;8.63;4.88;;;;;;;;;;5014466;28;20048;-86
2022/06/20 15:09:04;;;;;;;5.68;4.70;;;;;;;;;;4997351;28;20038;-86
2022/06/20 15:11:38;;;;;;;5.32;4.80;;;;;;;;;;5015112;28;20029;-86
2022/06/20 15:14:17;;;;;;;5.00;4.00;;;;;;;;;;4996808;28;20049;-86
2022/06/20 15:16:58;;;;;;;5.88;4.50;;;;;;;;;;5013774;28;20065;-85
2022/06/20 15:49:42;;;;;;;4.20;2.40;;;;;;;;;;4973335;28;20062;-86
2022/06/20 15:52:15;;;;;;;5.05;2.50;;;;;;;;;;4973989;28;20097;-86
2022/06/20 15:54:47;;;;;;;3.85;1.92;;;;;;;;;;4974719;28;20503;-87
2022/06/20 15:57:36;;;;;;;3.45;2.30;;;;;;;;;;4974500;28;20042;-87
2022/06/20 16:00:15;;;;;;;4.05;1.60;;;;;;;;;;4974125;28;20571;-87
2022/06/20 16:03:00;;;;;;;2.42;1.92;;;;;;;;;;4972950;28;20554;-87
2022/06/20 16:05:42;;;;;;;4.18;1.80;;;;;;;;;;4974073;28;20031;-87
2022/06/20 16:08:14;;;;;;;2.47;1.50;;;;;;;;;;4973824;28;20411;-86
2022/06/20 16:10:48;;;;;;;3.30;2.22;;;;;;;;;;4974897;28;20062;-83
2022/06/20 16:13:23;;;;;;;2.10;1.67;;;;;;;;;;5002262;23;20053;-94